createdAt,value
2023-05-12T00:00:32.995Z,11.30
2023-05-12T00:02:06.176Z,11.30
2023-05-12T00:03:38.357Z,11.30
2023-05-12T00:05:11.633Z,11.30
2023-05-12T00:06:44.563Z,11.30
2023-05-12T00:08:17.580Z,11.30
2023-05-12T00:09:49.552Z,11.30
2023-05-12T00:11:22.572Z,11.30
2023-05-12T00:12:56.116Z,11.30
2023-05-12T00:14:29.331Z,11.30
2023-05-12T00:16:03.693Z,11.30
2023-05-12T00:17:36.919Z,11.30
2023-05-12T00:19:10.073Z,11.30
2023-05-12T00:20:42.261Z,11.30
2023-05-12T00:22:16.974Z,11.30
2023-05-12T00:23:50.032Z,11.20
2023-05-12T00:25:23.046Z,11.20
2023-05-12T00:26:56.092Z,11.30
2023-05-12T00:28:30.490Z,11.30
2023-05-12T00:30:03.545Z,11.20
2023-05-12T00:31:36.628Z,11.20
2023-05-12T00:33:09.790Z,11.20
2023-05-12T00:34:43.332Z,11.20
2023-05-12T00:36:16.344Z,11.20
2023-05-12T00:37:49.341Z,11.20
2023-05-12T00:39:22.717Z,11.20
2023-05-12T00:40:55.530Z,11.20
2023-05-12T00:42:27.655Z,11.20
2023-05-12T00:44:02.126Z,11.20
2023-05-12T00:45:35.303Z,11.20
2023-05-12T00:47:07.486Z,11.20
2023-05-12T00:48:40.551Z,11.20
2023-05-12T00:50:13.655Z,11.20
2023-05-12T00:51:47.587Z,11.20
2023-05-12T00:53:20.707Z,11.20
2023-05-12T00:54:52.839Z,11.20
2023-05-12T00:56:26.848Z,11.20
2023-05-12T00:58:00.834Z,11.20
2023-05-12T00:59:34.382Z,11.20
2023-05-12T01:01:07.391Z,11.20
2023-05-12T01:02:41.120Z,11.20
2023-05-12T01:04:14.091Z,11.20
2023-05-12T01:05:51.271Z,11.20
2023-05-12T01:07:25.762Z,11.20
2023-05-12T01:08:59.113Z,11.20
2023-05-12T01:10:31.998Z,11.20
2023-05-12T01:12:04.483Z,11.20
2023-05-12T01:13:39.472Z,11.20
2023-05-12T01:15:13.533Z,11.20
2023-05-12T01:16:52.496Z,11.20
2023-05-12T01:18:28.345Z,11.20
2023-05-12T01:20:04.557Z,11.10
2023-05-12T01:21:37.059Z,11.20
2023-05-12T01:23:11.048Z,11.20
2023-05-12T01:24:50.998Z,11.20
2023-05-12T01:26:25.883Z,11.10
2023-05-12T01:27:58.386Z,11.20
2023-05-12T01:29:32.925Z,11.20
2023-05-12T01:31:07.741Z,11.20
2023-05-12T01:32:39.990Z,11.20
2023-05-12T01:34:18.459Z,11.10
2023-05-12T01:35:51.495Z,11.10
2023-05-12T01:37:26.588Z,11.10
2023-05-12T01:38:59.615Z,11.10
2023-05-12T01:40:32.700Z,11.10
2023-05-12T01:42:06.808Z,11.10
2023-05-12T01:43:39.926Z,11.10
2023-05-12T01:45:12.151Z,11.10
2023-05-12T01:46:45.223Z,11.20
2023-05-12T01:48:18.302Z,11.10
2023-05-12T01:49:51.080Z,11.10
2023-05-12T01:51:24.156Z,11.10
2023-05-12T01:52:57.222Z,11.10
2023-05-12T01:54:30.303Z,11.10
2023-05-12T01:56:03.373Z,11.10
2023-05-12T01:57:37.799Z,11.10
2023-05-12T01:59:10.914Z,11.10
2023-05-12T02:00:44.046Z,11.10
2023-05-12T02:02:16.324Z,11.10
2023-05-12T02:03:49.622Z,11.10
2023-05-12T02:05:22.264Z,11.10
2023-05-12T02:06:55.331Z,11.10
2023-05-12T02:08:27.362Z,11.20
2023-05-12T02:10:00.314Z,11.20
2023-05-12T02:11:33.245Z,11.20
2023-05-12T02:13:07.081Z,11.20
2023-05-12T02:17:59.890Z,11.20
2023-05-12T02:19:31.948Z,11.20
2023-05-12T02:21:05.071Z,11.20
2023-05-12T02:22:38.113Z,11.20
2023-05-12T02:24:12.911Z,11.30
2023-05-12T02:25:47.586Z,11.20
2023-05-12T02:27:20.614Z,11.20
2023-05-12T02:28:54.983Z,11.20
2023-05-12T02:30:27.953Z,11.20
2023-05-12T02:32:01.041Z,11.20
2023-05-12T02:33:34.316Z,11.20
2023-05-12T02:35:06.772Z,11.20
2023-05-12T02:36:40.019Z,11.20
2023-05-12T02:38:13.270Z,11.20
2023-05-12T02:39:46.332Z,11.20
2023-05-12T02:41:19.316Z,11.20
2023-05-12T02:42:52.564Z,11.20
2023-05-12T02:44:26.134Z,11.20
2023-05-12T02:45:59.304Z,11.20
2023-05-12T02:47:33.126Z,11.20
2023-05-12T02:49:06.221Z,11.20
2023-05-12T02:50:39.346Z,11.20
2023-05-12T02:52:12.523Z,11.20
2023-05-12T02:53:45.531Z,11.20
2023-05-12T02:55:18.872Z,11.20
2023-05-12T02:56:51.843Z,11.20
2023-05-12T02:58:24.886Z,11.20
2023-05-12T02:59:58.244Z,11.20
2023-05-12T03:01:31.047Z,11.20
2023-05-12T03:03:04.222Z,11.20
2023-05-12T03:04:36.931Z,11.20
2023-05-12T03:06:10.469Z,11.20
2023-05-12T03:07:43.469Z,11.20
2023-05-12T03:09:16.845Z,11.20
2023-05-12T03:10:49.588Z,11.20
2023-05-12T03:12:21.693Z,11.20
2023-05-12T03:13:54.682Z,11.20
2023-05-12T03:15:29.090Z,11.20
2023-05-12T03:17:02.190Z,11.20
2023-05-12T03:18:35.256Z,11.20
2023-05-12T03:20:08.039Z,11.20
2023-05-12T03:21:41.189Z,11.20
2023-05-12T03:23:14.210Z,11.20
2023-05-12T03:24:47.509Z,11.20
2023-05-12T03:26:20.452Z,11.20
2023-05-12T03:27:53.332Z,11.20
2023-05-12T03:29:26.575Z,11.20
2023-05-12T03:31:00.873Z,11.20
2023-05-12T03:32:32.872Z,11.20
2023-05-12T03:34:05.992Z,11.20
2023-05-12T03:35:37.996Z,11.20
2023-05-12T03:37:11.016Z,11.30
2023-05-12T03:38:44.193Z,11.30
2023-05-12T03:40:18.878Z,11.30
2023-05-12T03:41:51.177Z,11.30
2023-05-12T03:43:25.290Z,11.30
2023-05-12T03:44:58.216Z,11.30
2023-05-12T03:46:32.872Z,11.30
2023-05-12T03:48:07.090Z,11.30
2023-05-12T03:49:39.359Z,11.30
2023-05-12T03:51:12.558Z,11.40
2023-05-12T03:52:45.535Z,11.40
2023-05-12T03:54:18.721Z,11.40
2023-05-12T03:55:52.250Z,11.40
2023-05-12T03:57:24.173Z,11.40
2023-05-12T03:58:58.560Z,11.40
2023-05-12T04:00:31.514Z,11.40
2023-05-12T04:02:07.801Z,11.40
2023-05-12T04:03:41.692Z,11.40
2023-05-12T04:05:15.314Z,11.40
2023-05-12T04:06:48.248Z,11.40
2023-05-12T04:08:20.182Z,11.40
2023-05-12T04:09:53.274Z,11.40
2023-05-12T04:11:25.417Z,11.50
2023-05-12T04:12:58.385Z,11.50
2023-05-12T04:14:41.713Z,11.50
2023-05-12T04:16:15.826Z,11.50
2023-05-12T04:17:49.857Z,11.50
2023-05-12T04:19:22.958Z,11.50
2023-05-12T04:20:56.491Z,11.60
2023-05-12T04:22:30.448Z,11.60
2023-05-12T04:24:03.443Z,11.60
2023-05-12T04:25:40.786Z,11.60
2023-05-12T04:27:13.782Z,11.70
2023-05-12T04:28:47.739Z,11.70
2023-05-12T04:30:20.869Z,11.70
2023-05-12T04:31:54.386Z,11.70
2023-05-12T04:33:28.883Z,11.80
2023-05-12T04:35:02.088Z,11.80
2023-05-12T04:36:34.891Z,11.80
2023-05-12T04:38:07.895Z,11.80
2023-05-12T04:39:40.842Z,11.80
2023-05-12T04:41:13.975Z,11.80
2023-05-12T04:42:46.910Z,11.80
2023-05-12T04:44:19.942Z,11.80
2023-05-12T04:45:54.253Z,11.90
2023-05-12T04:47:27.293Z,11.90
2023-05-12T04:49:00.647Z,11.90
2023-05-12T04:50:33.396Z,11.90
2023-05-12T04:52:07.206Z,12.00
2023-05-12T04:53:40.712Z,12.00
2023-05-12T04:55:13.805Z,12.00
2023-05-12T04:56:46.812Z,12.10
2023-05-12T04:58:19.791Z,12.10
2023-05-12T04:59:53.262Z,12.20
2023-05-12T05:01:26.395Z,12.20
2023-05-12T05:02:59.409Z,12.30
2023-05-12T05:04:32.747Z,12.30
2023-05-12T05:06:05.607Z,12.40
2023-05-12T05:07:38.548Z,12.40
2023-05-12T05:09:10.735Z,12.40
2023-05-12T05:10:43.837Z,12.40
2023-05-12T05:12:15.901Z,12.50
2023-05-12T05:13:48.870Z,12.50
2023-05-12T05:15:21.974Z,12.70
2023-05-12T05:16:55.039Z,12.60
2023-05-12T05:18:29.219Z,12.60
2023-05-12T05:21:36.156Z,12.70
2023-05-12T05:23:09.125Z,12.80
2023-05-12T05:24:42.092Z,12.80
2023-05-12T05:26:15.118Z,12.80
2023-05-12T05:27:48.064Z,12.80
2023-05-12T05:29:20.979Z,12.80
2023-05-12T05:30:54.035Z,12.90
2023-05-12T05:32:27.130Z,12.90
2023-05-12T05:34:00.217Z,12.90
2023-05-12T05:35:34.828Z,13.00
2023-05-12T05:37:07.829Z,13.00
2023-05-12T05:38:40.979Z,13.00
2023-05-12T05:40:14.215Z,13.00
2023-05-12T05:41:47.084Z,13.00
2023-05-12T05:43:20.140Z,12.90
2023-05-12T05:44:52.123Z,12.90
2023-05-12T05:46:25.156Z,12.90
2023-05-12T05:47:58.174Z,12.90
2023-05-12T05:49:31.274Z,12.90
2023-05-12T05:51:06.320Z,12.90
2023-05-12T05:52:39.430Z,12.90
2023-05-12T05:54:12.214Z,12.90
2023-05-12T05:55:45.283Z,12.90
2023-05-12T05:57:18.208Z,12.90
2023-05-12T05:58:51.395Z,12.90
2023-05-12T06:00:24.423Z,12.90
2023-05-12T06:01:58.081Z,12.90
2023-05-12T06:03:31.619Z,12.90
2023-05-12T06:05:05.016Z,12.90
2023-05-12T06:06:39.142Z,12.90
2023-05-12T06:08:13.435Z,12.90
2023-05-12T06:09:46.586Z,13.10
2023-05-12T06:11:19.584Z,13.10
2023-05-12T06:12:52.572Z,13.30
2023-05-12T06:14:25.523Z,13.30
2023-05-12T06:15:58.437Z,13.50
2023-05-12T06:17:32.695Z,13.50
2023-05-12T06:19:05.968Z,13.50
2023-05-12T06:20:38.945Z,13.50
2023-05-12T06:22:13.318Z,13.60
2023-05-12T06:23:46.250Z,13.70
2023-05-12T06:25:19.461Z,13.70
2023-05-12T06:26:52.265Z,13.70
2023-05-12T06:28:25.227Z,13.70
2023-05-12T06:29:58.257Z,13.70
2023-05-12T06:31:31.347Z,13.70
2023-05-12T06:33:04.347Z,13.70
2023-05-12T06:34:37.376Z,13.70
2023-05-12T06:36:12.350Z,13.70
2023-05-12T06:37:49.732Z,13.70
2023-05-12T06:39:22.840Z,13.60
2023-05-12T06:40:55.806Z,13.70
2023-05-12T06:42:28.772Z,13.70
2023-05-12T06:44:02.501Z,13.70
2023-05-12T06:45:35.613Z,13.80
2023-05-12T06:47:08.695Z,13.80
2023-05-12T06:48:41.964Z,13.90
2023-05-12T06:50:13.840Z,13.90
2023-05-12T06:51:46.802Z,13.80
2023-05-12T06:53:23.383Z,13.80
2023-05-12T06:54:57.813Z,13.80
2023-05-12T06:56:31.677Z,13.90
2023-05-12T06:58:04.901Z,13.80
2023-05-12T06:59:37.854Z,13.80
2023-05-12T07:01:10.943Z,13.80
2023-05-12T07:02:43.969Z,13.80
2023-05-12T07:04:16.960Z,13.90
2023-05-12T07:05:50.160Z,13.90
2023-05-12T07:07:23.098Z,14.00
2023-05-12T07:08:57.765Z,13.90
2023-05-12T07:10:31.953Z,13.90
2023-05-12T07:12:05.445Z,13.80
2023-05-12T07:13:39.077Z,13.80
2023-05-12T07:15:12.760Z,13.80
2023-05-12T07:16:46.756Z,13.90
2023-05-12T07:18:20.352Z,14.00
2023-05-12T07:19:53.298Z,14.10
2023-05-12T07:21:26.229Z,14.20
2023-05-12T07:22:59.258Z,14.30
2023-05-12T07:24:33.694Z,14.40
2023-05-12T07:26:08.043Z,14.60
2023-05-12T07:27:41.239Z,14.60
2023-05-12T07:29:14.372Z,14.70
2023-05-12T07:30:47.337Z,14.70
2023-05-12T07:32:20.409Z,14.70
2023-05-12T07:33:53.512Z,14.80
2023-05-12T07:35:25.611Z,14.80
2023-05-12T07:36:59.533Z,14.70
2023-05-12T07:38:32.777Z,14.70
2023-05-12T07:40:07.647Z,14.70
2023-05-12T07:41:40.582Z,14.60
2023-05-12T07:43:13.623Z,14.50
2023-05-12T07:44:46.587Z,14.50
2023-05-12T07:46:19.686Z,14.40
2023-05-12T07:47:53.227Z,14.40
2023-05-12T07:49:26.748Z,14.50
2023-05-12T07:50:59.737Z,14.70
2023-05-12T07:52:32.771Z,14.80
2023-05-12T07:54:06.809Z,15.00
2023-05-12T07:55:41.139Z,15.30
2023-05-12T07:57:14.228Z,15.50
2023-05-12T07:58:47.594Z,15.70
2023-05-12T08:00:21.114Z,15.90
2023-05-12T08:01:54.344Z,15.80
2023-05-12T08:03:27.455Z,15.80
2023-05-12T08:05:00.569Z,15.80
2023-05-12T08:06:33.642Z,15.80
2023-05-12T08:08:06.738Z,15.80
2023-05-12T08:09:39.700Z,15.70
2023-05-12T08:11:14.587Z,15.60
2023-05-12T08:12:48.096Z,15.60
2023-05-12T08:14:22.388Z,15.70
2023-05-12T08:15:55.458Z,15.80
2023-05-12T08:17:29.432Z,15.90
2023-05-12T08:19:02.506Z,16.00
2023-05-12T08:20:36.005Z,16.10
2023-05-12T08:22:08.905Z,16.20
2023-05-12T08:23:41.893Z,16.30
2023-05-12T08:25:14.894Z,16.50
2023-05-12T08:26:49.246Z,16.50
2023-05-12T08:28:22.129Z,16.60
2023-05-12T08:29:55.170Z,16.50
2023-05-12T08:31:28.380Z,16.60
2023-05-12T08:33:01.695Z,16.70
2023-05-12T08:34:34.692Z,16.70
2023-05-12T08:36:07.871Z,16.80
2023-05-12T08:37:40.795Z,17.00
2023-05-12T08:39:13.848Z,17.10
2023-05-12T08:40:56.238Z,17.30
2023-05-12T08:42:45.139Z,17.50
2023-05-12T08:44:20.324Z,17.60
2023-05-12T08:45:57.340Z,17.70
2023-05-12T08:47:31.305Z,17.60
2023-05-12T08:49:05.765Z,17.50
2023-05-12T08:50:42.178Z,17.40
2023-05-12T08:52:21.506Z,17.40
2023-05-12T08:53:56.545Z,17.20
2023-05-12T08:55:32.724Z,17.10
2023-05-12T08:57:10.469Z,16.90
2023-05-12T08:58:47.184Z,16.70
2023-05-12T09:00:21.920Z,16.50
2023-05-12T09:01:56.337Z,16.30
2023-05-12T09:03:30.081Z,16.20
2023-05-12T09:05:03.025Z,15.80
2023-05-12T09:06:36.295Z,15.80
2023-05-12T09:08:10.446Z,15.80
2023-05-12T09:09:46.230Z,15.90
2023-05-12T09:11:21.836Z,15.90
2023-05-12T09:12:59.271Z,16.00
2023-05-12T09:14:35.548Z,16.10
2023-05-12T09:16:12.324Z,16.20
2023-05-12T09:17:45.376Z,16.20
2023-05-12T09:19:21.527Z,16.30
2023-05-12T09:20:54.502Z,16.50
2023-05-12T09:22:31.343Z,16.60
2023-05-12T09:24:06.967Z,16.80
2023-05-12T09:25:39.872Z,16.80
2023-05-12T09:27:12.783Z,16.80
2023-05-12T09:28:45.958Z,16.90
2023-05-12T09:30:29.470Z,16.90
2023-05-12T09:32:04.106Z,16.90
2023-05-12T09:33:37.155Z,16.90
2023-05-12T09:35:11.966Z,17.00
2023-05-12T09:36:45.868Z,17.20
2023-05-12T09:38:18.737Z,17.20
2023-05-12T09:40:00.898Z,17.40
2023-05-12T09:41:36.807Z,17.50
2023-05-12T09:43:10.008Z,17.60
2023-05-12T09:44:42.800Z,18.00
2023-05-12T09:46:16.428Z,18.20
2023-05-12T09:47:49.367Z,18.40
2023-05-12T09:49:24.935Z,18.70
2023-05-12T09:50:58.745Z,19.10
2023-05-12T09:52:32.989Z,19.20
2023-05-12T09:54:07.832Z,19.40
2023-05-12T09:55:43.632Z,19.50
2023-05-12T09:57:17.698Z,19.70
2023-05-12T09:58:51.146Z,20.00
2023-05-12T10:00:38.673Z,20.20
2023-05-12T10:02:20.001Z,20.50
2023-05-12T10:03:54.682Z,20.80
2023-05-12T10:05:29.330Z,20.90
2023-05-12T10:07:02.444Z,21.00
2023-05-12T10:08:38.798Z,21.00
2023-05-12T10:10:14.198Z,20.90
2023-05-12T10:11:48.673Z,20.80
2023-05-12T10:13:23.603Z,20.50
2023-05-12T10:14:57.598Z,20.20
2023-05-12T10:16:32.842Z,20.20
2023-05-12T10:18:07.435Z,20.30
2023-05-12T10:19:42.337Z,20.40
2023-05-12T10:21:16.945Z,20.50
2023-05-12T10:22:50.851Z,20.50
2023-05-12T10:24:27.434Z,20.60
2023-05-12T10:26:02.233Z,20.50
2023-05-12T10:27:37.780Z,20.10
2023-05-12T10:29:11.831Z,19.80
2023-05-12T10:30:46.225Z,19.50
2023-05-12T10:32:19.518Z,19.20
2023-05-12T10:34:00.029Z,18.90
2023-05-12T10:35:34.108Z,18.80
2023-05-12T10:37:09.018Z,18.50
2023-05-12T10:38:42.467Z,18.20
2023-05-12T10:40:24.252Z,17.90
2023-05-12T10:42:04.841Z,17.60
2023-05-12T10:43:45.971Z,17.20
2023-05-12T10:45:20.762Z,17.00
2023-05-12T10:46:59.015Z,17.00
2023-05-12T10:48:31.878Z,17.20
2023-05-12T10:50:07.836Z,17.50
2023-05-12T10:51:49.657Z,17.80
2023-05-12T10:53:41.407Z,18.20
2023-05-12T10:55:15.151Z,18.50
2023-05-12T10:56:49.201Z,18.90
2023-05-12T10:58:22.628Z,18.90
2023-05-12T10:59:58.842Z,19.10
2023-05-12T11:01:32.566Z,19.30
2023-05-12T11:03:14.784Z,19.50
2023-05-12T11:04:53.108Z,19.70
2023-05-12T11:06:30.455Z,19.70
2023-05-12T11:08:04.777Z,19.70
2023-05-12T11:09:47.118Z,19.40
2023-05-12T11:11:27.818Z,19.10
2023-05-12T11:13:01.253Z,19.00
2023-05-12T11:14:34.730Z,18.80
2023-05-12T11:16:07.978Z,18.60
2023-05-12T11:17:41.551Z,18.60
2023-05-12T11:19:14.585Z,18.70
2023-05-12T11:20:47.586Z,19.00
2023-05-12T11:22:23.222Z,19.30
2023-05-12T11:23:56.424Z,19.40
2023-05-12T11:25:29.321Z,19.40
2023-05-12T11:27:02.371Z,19.40
2023-05-12T11:28:41.206Z,19.50
2023-05-12T11:30:14.659Z,19.60
2023-05-12T11:31:51.461Z,19.80
2023-05-12T11:33:24.857Z,19.80
2023-05-12T11:34:58.445Z,19.80
2023-05-12T11:36:37.839Z,19.80
2023-05-12T11:38:18.244Z,19.70
2023-05-12T11:39:52.856Z,19.40
2023-05-12T11:41:26.419Z,19.00
2023-05-12T11:43:10.328Z,18.50
2023-05-12T11:44:48.486Z,18.20
2023-05-12T11:46:28.107Z,18.10
2023-05-12T11:48:08.672Z,18.00
2023-05-12T11:49:48.091Z,17.70
2023-05-12T11:51:21.084Z,17.40
2023-05-12T11:52:54.606Z,17.10
2023-05-12T11:54:30.691Z,16.70
2023-05-12T11:56:03.653Z,16.30
2023-05-12T11:57:37.138Z,15.90
2023-05-12T11:59:10.306Z,15.80
2023-05-12T12:00:43.264Z,15.70
2023-05-12T12:02:21.546Z,15.80
2023-05-12T12:03:57.211Z,16.00
2023-05-12T12:05:30.579Z,16.30
2023-05-12T12:07:03.594Z,16.40
2023-05-12T12:08:40.470Z,16.60
2023-05-12T12:10:16.253Z,16.70
2023-05-12T12:11:49.201Z,16.80
2023-05-12T12:13:23.754Z,16.80
2023-05-12T12:14:59.951Z,16.90
2023-05-12T12:16:33.423Z,17.10
2023-05-12T12:18:06.858Z,17.20
2023-05-12T12:19:39.569Z,17.50
2023-05-12T12:21:12.967Z,17.70
2023-05-12T12:22:45.966Z,18.00
2023-05-12T12:24:18.809Z,17.90
2023-05-12T12:25:53.048Z,18.00
2023-05-12T12:27:25.981Z,18.20
2023-05-12T12:28:58.874Z,18.20
2023-05-12T12:30:31.875Z,18.20
2023-05-12T12:32:05.041Z,17.90
2023-05-12T12:33:38.119Z,17.80
2023-05-12T12:35:11.583Z,17.70
2023-05-12T12:36:44.544Z,17.50
2023-05-12T12:38:17.703Z,17.60
2023-05-12T12:39:50.493Z,17.50
2023-05-12T12:41:25.654Z,17.40
2023-05-12T12:42:58.540Z,17.50
2023-05-12T12:44:34.505Z,17.40
2023-05-12T12:46:07.459Z,17.40
2023-05-12T12:47:40.631Z,17.30
2023-05-12T12:49:13.488Z,17.40
2023-05-12T12:50:46.470Z,17.50
2023-05-12T12:52:19.443Z,17.50
2023-05-12T12:53:52.432Z,17.70
2023-05-12T12:55:25.874Z,17.90
2023-05-12T12:57:00.248Z,18.00
2023-05-12T12:58:33.194Z,18.20
2023-05-12T13:00:08.540Z,18.30
2023-05-12T13:01:41.643Z,18.40
2023-05-12T13:03:14.625Z,18.50
2023-05-12T13:04:47.580Z,18.60
2023-05-12T13:06:20.505Z,18.60
2023-05-12T13:07:53.546Z,18.40
2023-05-12T13:09:26.382Z,18.50
2023-05-12T13:11:00.285Z,18.60
2023-05-12T13:12:34.650Z,18.70
2023-05-12T13:14:08.329Z,18.70
2023-05-12T13:15:41.895Z,18.70
2023-05-12T13:17:14.827Z,18.60
2023-05-12T13:18:47.765Z,18.50
2023-05-12T13:20:20.919Z,18.40
2023-05-12T13:21:54.032Z,18.20
2023-05-12T13:23:26.961Z,17.90
2023-05-12T13:24:59.908Z,17.70
2023-05-12T13:26:32.904Z,17.40
2023-05-12T13:28:08.262Z,17.10
2023-05-12T13:29:42.105Z,16.90
2023-05-12T13:31:15.019Z,16.80
2023-05-12T13:32:48.194Z,16.70
2023-05-12T13:34:19.988Z,16.80
2023-05-12T13:35:52.943Z,16.80
2023-05-12T13:37:25.855Z,16.80
2023-05-12T13:38:58.766Z,16.90
2023-05-12T13:40:31.705Z,17.00
2023-05-12T13:42:04.894Z,17.10
2023-05-12T13:43:39.040Z,17.30
2023-05-12T13:45:12.570Z,17.60
2023-05-12T13:46:45.644Z,17.80
2023-05-12T13:48:18.654Z,18.00
2023-05-12T13:49:52.217Z,18.10
2023-05-12T13:51:25.801Z,18.10
2023-05-12T13:52:58.701Z,18.10
2023-05-12T13:54:32.953Z,18.20
2023-05-12T13:56:06.366Z,18.10
2023-05-12T13:57:39.242Z,18.00
2023-05-12T13:59:14.425Z,17.60
2023-05-12T14:00:48.576Z,17.50
2023-05-12T14:02:22.009Z,17.40
2023-05-12T14:03:55.076Z,17.30
2023-05-12T14:05:28.338Z,17.20
2023-05-12T14:07:01.362Z,17.10
2023-05-12T14:08:34.272Z,17.10
2023-05-12T14:10:08.224Z,17.10
2023-05-12T14:11:41.152Z,17.10
2023-05-12T14:13:14.055Z,17.20
2023-05-12T14:14:50.113Z,17.30
2023-05-12T14:16:23.106Z,17.40
2023-05-12T14:17:56.133Z,17.50
2023-05-12T14:19:29.103Z,17.60
2023-05-12T14:21:02.405Z,17.80
2023-05-12T14:22:38.273Z,17.90
2023-05-12T14:24:11.362Z,18.00
2023-05-12T14:25:59.867Z,18.00
2023-05-12T14:27:32.845Z,18.10
2023-05-12T14:29:07.497Z,18.10
2023-05-12T14:30:43.614Z,17.90
2023-05-12T14:32:18.154Z,17.90
2023-05-12T14:33:52.196Z,17.90
2023-05-12T14:35:27.556Z,17.90
2023-05-12T14:37:01.694Z,17.80
2023-05-12T14:38:34.659Z,17.90
2023-05-12T14:40:08.775Z,18.00
2023-05-12T14:41:41.700Z,18.10
2023-05-12T14:43:14.724Z,18.20
2023-05-12T14:44:47.621Z,18.30
2023-05-12T14:46:22.001Z,18.40
2023-05-12T14:47:55.156Z,18.50
2023-05-12T14:49:27.939Z,18.60
2023-05-12T14:51:02.732Z,18.60
2023-05-12T14:52:38.392Z,18.70
2023-05-12T14:54:22.112Z,18.70
2023-05-12T14:55:58.560Z,18.70
2023-05-12T14:57:33.854Z,18.40
2023-05-12T14:59:06.915Z,18.50
2023-05-12T15:00:39.843Z,18.40
2023-05-12T15:02:14.249Z,18.40
2023-05-12T15:03:47.563Z,18.40
2023-05-12T15:05:20.476Z,18.40
2023-05-12T15:06:53.590Z,18.40
2023-05-12T15:08:26.879Z,18.50
2023-05-12T15:09:59.825Z,18.50
2023-05-12T15:11:32.839Z,18.50
2023-05-12T15:13:06.231Z,18.40
2023-05-12T15:14:39.240Z,18.40
2023-05-12T15:16:12.364Z,18.30
2023-05-12T15:17:46.750Z,18.20
2023-05-12T15:19:21.367Z,18.20
2023-05-12T15:20:54.484Z,18.20
2023-05-12T15:22:31.434Z,18.30
2023-05-12T15:24:04.830Z,18.30
2023-05-12T15:25:40.172Z,18.50
2023-05-12T15:27:13.175Z,18.60
2023-05-12T15:28:46.110Z,18.60
2023-05-12T15:30:19.076Z,18.80
2023-05-12T15:31:52.284Z,18.80
2023-05-12T15:33:26.785Z,19.00
2023-05-12T15:34:59.807Z,19.10
2023-05-12T15:36:32.773Z,19.30
2023-05-12T15:38:05.669Z,19.20
2023-05-12T15:39:38.592Z,19.20
2023-05-12T15:41:11.557Z,19.20
2023-05-12T15:42:44.580Z,19.10
2023-05-12T15:44:17.806Z,18.90
2023-05-12T15:45:50.602Z,18.70
2023-05-12T15:47:23.429Z,18.70
2023-05-12T15:48:58.204Z,18.60
2023-05-12T15:50:31.046Z,18.50
2023-05-12T15:52:04.040Z,18.60
2023-05-12T15:53:36.921Z,18.60
2023-05-12T15:55:09.899Z,18.70
2023-05-12T15:56:43.332Z,18.70
2023-05-12T15:58:16.257Z,18.70
2023-05-12T15:59:50.173Z,18.60
2023-05-12T16:01:24.317Z,18.60
2023-05-12T16:02:57.932Z,18.60
2023-05-12T16:04:32.333Z,18.60
2023-05-12T16:06:07.013Z,18.60
2023-05-12T16:07:40.587Z,18.60
2023-05-12T16:09:13.654Z,18.70
2023-05-12T16:10:46.703Z,18.90
2023-05-12T16:12:19.620Z,18.90
2023-05-12T16:13:53.220Z,18.90
2023-05-12T16:15:26.188Z,18.70
2023-05-12T16:16:59.129Z,18.60
2023-05-12T16:18:32.414Z,18.50
2023-05-12T16:20:09.296Z,18.50
2023-05-12T16:21:44.149Z,18.40
2023-05-12T16:23:17.166Z,18.40
2023-05-12T16:24:50.147Z,18.40
2023-05-12T16:26:23.867Z,18.30
2023-05-12T16:27:56.943Z,18.30
2023-05-12T16:29:30.127Z,18.30
2023-05-12T16:31:03.503Z,18.10
2023-05-12T16:32:36.595Z,18.10
2023-05-12T16:34:09.656Z,18.10
2023-05-12T16:35:44.091Z,18.10
2023-05-12T16:37:17.014Z,18.10
2023-05-12T16:38:50.034Z,18.00
2023-05-12T16:40:23.013Z,18.00
2023-05-12T16:41:55.949Z,18.00
2023-05-12T16:43:28.992Z,18.00
2023-05-12T16:45:02.172Z,17.80
2023-05-12T16:46:35.976Z,17.80
2023-05-12T16:48:09.170Z,17.80
2023-05-12T16:49:42.234Z,17.80
2023-05-12T16:51:16.664Z,17.80
2023-05-12T16:52:49.555Z,17.70
2023-05-12T16:54:22.807Z,17.60
2023-05-12T16:55:55.656Z,17.50
2023-05-12T16:57:28.752Z,17.50
2023-05-12T16:59:02.178Z,17.40
2023-05-12T17:00:35.475Z,17.30
2023-05-12T17:02:08.517Z,17.30
2023-05-12T17:03:41.682Z,17.30
2023-05-12T17:05:14.547Z,17.20
2023-05-12T17:06:50.111Z,17.20
2023-05-12T17:08:23.127Z,17.20
2023-05-12T17:09:56.112Z,17.10
2023-05-12T17:11:29.105Z,17.10
2023-05-12T17:13:02.493Z,17.00
2023-05-12T17:14:35.703Z,17.00
2023-05-12T17:16:08.644Z,16.90
2023-05-12T17:17:41.700Z,16.80
2023-05-12T17:19:15.082Z,16.80
2023-05-12T17:20:48.141Z,16.80
2023-05-12T17:22:22.494Z,16.80
2023-05-12T17:23:55.546Z,16.80
2023-05-12T17:25:31.040Z,16.70
2023-05-12T17:27:05.791Z,16.70
2023-05-12T17:28:38.856Z,16.70
2023-05-12T17:30:12.978Z,16.70
2023-05-12T17:31:46.015Z,16.60
2023-05-12T17:33:19.117Z,16.60
2023-05-12T17:34:52.173Z,16.60
2023-05-12T17:36:25.105Z,16.50
2023-05-12T17:38:00.610Z,16.40
2023-05-12T17:39:34.246Z,16.30
2023-05-12T17:41:07.258Z,16.20
2023-05-12T17:42:40.229Z,16.10
2023-05-12T17:44:13.174Z,16.10
2023-05-12T17:45:46.142Z,16.00
2023-05-12T17:47:19.227Z,15.90
2023-05-12T17:48:52.297Z,15.80
2023-05-12T17:50:25.238Z,15.80
2023-05-12T17:51:58.317Z,15.70
2023-05-12T17:53:33.588Z,15.70
2023-05-12T17:55:09.154Z,15.60
2023-05-12T17:56:42.090Z,15.50
2023-05-12T17:58:15.020Z,15.50
2023-05-12T17:59:48.519Z,15.40
2023-05-12T18:01:21.417Z,15.40
2023-05-12T18:02:54.485Z,15.30
2023-05-12T18:04:27.637Z,15.20
2023-05-12T18:06:00.657Z,15.20
2023-05-12T18:07:33.739Z,15.20
2023-05-12T18:09:08.610Z,15.10
2023-05-12T18:10:41.596Z,15.00
2023-05-12T18:12:14.628Z,15.00
2023-05-12T18:13:48.022Z,15.00
2023-05-12T18:15:22.446Z,15.00
2023-05-12T18:16:55.492Z,14.90
2023-05-12T18:18:28.568Z,14.90
2023-05-12T18:20:01.796Z,14.90
2023-05-12T18:21:34.779Z,14.90
2023-05-12T18:23:07.776Z,14.80
2023-05-12T18:24:42.083Z,14.70
2023-05-12T18:26:15.036Z,14.70
2023-05-12T18:27:48.824Z,14.60
2023-05-12T18:29:21.739Z,14.50
2023-05-12T18:30:56.261Z,14.50
2023-05-12T18:32:33.631Z,14.40
2023-05-12T18:34:06.923Z,14.30
2023-05-12T18:35:39.886Z,14.20
2023-05-12T18:37:15.352Z,14.10
2023-05-12T18:38:48.520Z,14.00
2023-05-12T18:40:22.857Z,13.90
2023-05-12T18:41:56.135Z,13.90
2023-05-12T18:43:28.911Z,13.80
2023-05-12T18:45:02.005Z,13.70
2023-05-12T18:46:34.999Z,13.70
2023-05-12T18:48:08.283Z,13.60
2023-05-12T18:49:40.144Z,13.50
2023-05-12T18:51:13.049Z,13.50
2023-05-12T18:52:45.998Z,13.40
2023-05-12T18:54:18.969Z,13.40
2023-05-12T18:55:53.350Z,13.30
2023-05-12T18:57:26.373Z,13.20
2023-05-12T18:58:59.412Z,13.20
2023-05-12T19:00:33.515Z,13.10
2023-05-12T19:02:06.610Z,13.10
2023-05-12T19:03:40.283Z,13.00
2023-05-12T19:05:13.247Z,13.00
2023-05-12T19:06:46.749Z,12.90
2023-05-12T19:08:20.014Z,12.80
2023-05-12T19:09:52.916Z,12.80
2023-05-12T19:11:27.494Z,12.80
2023-05-12T19:13:00.447Z,12.70
2023-05-12T19:14:33.408Z,12.70
2023-05-12T19:16:06.685Z,12.70
2023-05-12T19:17:39.481Z,12.70
2023-05-12T19:19:12.688Z,12.70
2023-05-12T19:20:45.590Z,12.70
2023-05-12T19:22:18.502Z,12.60
2023-05-12T19:23:51.497Z,12.60
2023-05-12T19:25:23.977Z,12.50
2023-05-12T19:26:58.780Z,12.50
2023-05-12T19:28:31.730Z,12.50
2023-05-12T19:30:05.967Z,12.40
2023-05-12T19:31:38.996Z,12.40
2023-05-12T19:33:12.005Z,12.30
2023-05-12T19:34:45.064Z,12.30
2023-05-12T19:36:18.118Z,12.20
2023-05-12T19:37:51.996Z,12.10
2023-05-12T19:39:24.975Z,12.10
2023-05-12T19:40:57.846Z,12.00
2023-05-12T19:42:32.675Z,12.00
2023-05-12T19:44:05.761Z,12.00
2023-05-12T19:45:38.915Z,11.90
2023-05-12T19:47:14.062Z,11.80
2023-05-12T19:48:47.224Z,11.90
2023-05-12T19:50:21.139Z,11.90
2023-05-12T19:51:54.121Z,12.00
2023-05-12T19:53:27.119Z,12.10
2023-05-12T19:55:00.099Z,12.10
2023-05-12T19:56:33.629Z,12.20
2023-05-12T19:58:08.900Z,12.20
2023-05-12T19:59:42.279Z,12.20
2023-05-12T20:01:15.126Z,12.10
2023-05-12T20:02:48.316Z,12.10
2023-05-12T20:04:21.443Z,12.10
2023-05-12T20:05:54.399Z,12.00
2023-05-12T20:07:27.483Z,11.90
2023-05-12T20:09:00.598Z,11.90
2023-05-12T20:10:33.573Z,11.90
2023-05-12T20:12:08.034Z,11.90
2023-05-12T20:13:42.481Z,11.80